Terminal Aerodrome Forecast
Issued by NWS

Home | Current Version | Previous Version | Graphics & Text | Print | Product List | Glossary On
Versions: 1 2 3 4 5 6 7 8 9 10 11 12 13 14 15 16 17
000
FTUS43 KMPX 290900 AAB
TAFRWF
TAF AMD
KRWF 290907Z 2909/3006 13005KT 3SM BR OVC004
      TEMPO 2909/2911 1SM BR
     FM291400 18003KT 6SM BR SCT008 BKN014
     FM291600 25005KT P6SM BKN020 BKN040
     FM291900 VRB03KT P6SM VCTS SCT025CB BKN060
     FM292200 VRB02KT P6SM SCT020 BKN050=

USA.gov is the U.S. government's official web portal to all federal, state and local government web resources and services.